createdAt,value
2017-06-25T00:01:30.282Z,101341.98
2017-06-25T00:03:56.531Z,101332.90
2017-06-25T00:06:22.814Z,101328.37
2017-06-25T00:08:49.058Z,101330.38
2017-06-25T00:11:15.326Z,101325.98
2017-06-25T00:13:41.592Z,101334.47
2017-06-25T00:17:35.696Z,101316.45
2017-06-25T00:20:01.998Z,101323.98
2017-06-25T00:22:28.249Z,101317.41
2017-06-25T00:24:55.255Z,101315.53
2017-06-25T00:27:21.549Z,101313.06
2017-06-25T00:29:47.830Z,101308.67
2017-06-25T00:32:14.079Z,101306.52
2017-06-25T00:34:40.371Z,101312.41
2017-06-25T00:37:06.634Z,101311.52
2017-06-25T00:39:32.925Z,101312.38
2017-06-25T00:41:59.283Z,101306.21
2017-06-25T00:44:25.521Z,101304.38
2017-06-25T00:46:52.542Z,101303.63
2017-06-25T00:49:18.823Z,101301.99
2017-06-25T00:51:45.087Z,101295.29
2017-06-25T00:54:17.475Z,101303.50
2017-06-25T00:56:43.735Z,101302.99
2017-06-25T00:59:09.984Z,101300.16
2017-06-25T01:01:36.235Z,101303.00
2017-06-25T01:04:02.507Z,101301.65
2017-06-25T01:06:29.538Z,101296.19
2017-06-25T01:08:55.796Z,101290.80
2017-06-25T01:11:22.055Z,101290.91
2017-06-25T01:13:48.363Z,101289.12
2017-06-25T01:17:35.824Z,101292.45
2017-06-25T01:20:02.122Z,101287.13
2017-06-25T01:22:28.379Z,101293.34
2017-06-25T01:24:54.702Z,101290.48
2017-06-25T01:27:20.977Z,101287.59
2017-06-25T01:29:47.259Z,101283.85
2017-06-25T01:32:13.575Z,101282.72
2017-06-25T01:34:39.858Z,101276.58
2017-06-25T01:37:06.139Z,101280.33
2017-06-25T01:39:32.403Z,101281.53
2017-06-25T01:41:58.698Z,101281.41
2017-06-25T01:44:24.976Z,101278.63
2017-06-25T01:46:51.263Z,101269.96
2017-06-25T01:49:17.550Z,101267.72
2017-06-25T01:51:43.858Z,101278.88
2017-06-25T01:54:10.118Z,101273.38
2017-06-25T01:56:36.418Z,101280.33
2017-06-25T01:59:02.707Z,101273.62
2017-06-25T02:01:28.958Z,101271.45
2017-06-25T02:03:55.259Z,101265.75
2017-06-25T02:06:21.486Z,101265.25
2017-06-25T02:08:47.754Z,101265.38
2017-06-25T02:14:14.132Z,101261.22
2017-06-25T02:17:34.815Z,101266.64
2017-06-25T02:20:01.059Z,101261.02
2017-06-25T02:22:27.303Z,101256.96
2017-06-25T02:24:53.543Z,101253.23
2017-06-25T02:27:19.777Z,101252.22
2017-06-25T02:29:46.011Z,101247.96
2017-06-25T02:32:12.284Z,101258.88
2017-06-25T02:34:38.539Z,101246.42
2017-06-25T02:37:04.778Z,101247.94
2017-06-25T02:39:31.038Z,101241.30
2017-06-25T02:41:57.282Z,101246.88
2017-06-25T02:44:23.524Z,101245.84
2017-06-25T02:46:49.824Z,101243.22
2017-06-25T02:49:16.050Z,101243.03
2017-06-25T02:51:42.283Z,101252.12
2017-06-25T02:54:08.549Z,101254.63
2017-06-25T02:56:34.786Z,101245.87
2017-06-25T02:59:01.019Z,101253.94
2017-06-25T03:01:27.252Z,101259.19
2017-06-25T03:03:53.516Z,101254.66
2017-06-25T03:06:19.783Z,101249.08
2017-06-25T03:08:46.043Z,101250.71
2017-06-25T03:11:12.328Z,101242.02
2017-06-25T03:13:38.577Z,101250.91
2017-06-25T03:17:35.963Z,101250.09
2017-06-25T03:20:02.236Z,101250.38
2017-06-25T03:22:28.484Z,101249.50
2017-06-25T03:24:54.711Z,101249.66
2017-06-25T03:27:20.970Z,101245.55
2017-06-25T03:29:47.227Z,101246.05
2017-06-25T03:32:13.492Z,101248.52
2017-06-25T03:34:39.749Z,101250.92
2017-06-25T03:37:06.001Z,101249.05
2017-06-25T03:39:32.275Z,101243.05
2017-06-25T03:41:58.507Z,101243.97
2017-06-25T03:44:24.755Z,101246.59
2017-06-25T03:46:51.045Z,101240.41
2017-06-25T03:49:17.307Z,101240.66
2017-06-25T03:51:43.558Z,101240.30
2017-06-25T03:54:09.840Z,101243.37
2017-06-25T03:56:36.095Z,101235.52
2017-06-25T03:59:02.339Z,101236.63
2017-06-25T04:01:28.590Z,101244.39
2017-06-25T04:03:54.868Z,101247.80
2017-06-25T04:06:21.147Z,101239.86
2017-06-25T04:08:47.378Z,101247.30
2017-06-25T04:11:13.623Z,101235.30
2017-06-25T04:13:39.907Z,101239.83
2017-06-25T04:17:35.650Z,101240.15
2017-06-25T04:20:01.903Z,101237.02
2017-06-25T04:22:28.178Z,101236.41
2017-06-25T04:24:54.424Z,101239.59
2017-06-25T04:27:20.807Z,101245.28
2017-06-25T04:29:47.086Z,101245.71
2017-06-25T04:32:13.310Z,101246.36
2017-06-25T04:34:39.583Z,101243.13
2017-06-25T04:37:05.827Z,101246.02
2017-06-25T04:39:32.054Z,101247.69
2017-06-25T04:41:59.086Z,101243.45
2017-06-25T04:44:25.330Z,101247.79
2017-06-25T04:46:51.571Z,101242.50
2017-06-25T04:49:17.868Z,101245.53
2017-06-25T04:51:44.097Z,101249.95
2017-06-25T04:54:10.344Z,101250.08
2017-06-25T04:56:36.614Z,101248.74
2017-06-25T04:59:02.850Z,101243.02
2017-06-25T05:01:29.069Z,101249.84
2017-06-25T05:03:55.332Z,101240.83
2017-06-25T05:06:21.580Z,101241.33
2017-06-25T05:08:47.826Z,101244.47
2017-06-25T05:11:14.132Z,101242.28
2017-06-25T05:13:40.377Z,101244.52
2017-06-25T05:17:35.311Z,101247.37
2017-06-25T05:20:01.597Z,101252.19
2017-06-25T05:22:27.882Z,101251.62
2017-06-25T05:24:54.180Z,101249.28
2017-06-25T05:27:20.420Z,101254.27
2017-06-25T05:29:46.683Z,101252.31
2017-06-25T05:32:13.106Z,101250.98
2017-06-25T05:34:39.362Z,101252.67
2017-06-25T05:37:07.065Z,101248.33
2017-06-25T05:39:33.333Z,101244.91
2017-06-25T05:41:59.937Z,101257.67
2017-06-25T05:44:26.175Z,101254.06
2017-06-25T05:46:52.422Z,101253.87
2017-06-25T05:49:18.688Z,101264.17
2017-06-25T05:51:44.938Z,101252.28
2017-06-25T05:54:11.193Z,101257.92
2017-06-25T05:56:37.456Z,101258.22
2017-06-25T05:59:03.712Z,101255.85
2017-06-25T06:01:29.968Z,101258.26
2017-06-25T06:03:56.564Z,101257.48
2017-06-25T06:06:22.808Z,101259.17
2017-06-25T06:08:49.702Z,101254.56
2017-06-25T06:11:16.060Z,101267.27
2017-06-25T06:13:42.518Z,101262.70
2017-06-25T06:17:35.990Z,101260.27
2017-06-25T06:20:02.505Z,101266.89
2017-06-25T06:22:28.748Z,101262.90
2017-06-25T06:24:55.010Z,101266.06
2017-06-25T06:27:21.286Z,101265.31
2017-06-25T06:29:47.530Z,101269.06
2017-06-25T06:32:14.667Z,101264.61
2017-06-25T06:34:40.925Z,101263.58
2017-06-25T06:37:07.212Z,101269.91
2017-06-25T06:39:33.469Z,101261.45
2017-06-25T06:41:59.719Z,101269.16
2017-06-25T06:44:26.052Z,101262.62
2017-06-25T06:46:52.296Z,101268.42
2017-06-25T06:49:18.542Z,101278.21
2017-06-25T06:51:44.798Z,101279.83
2017-06-25T06:54:11.030Z,101280.38
2017-06-25T06:56:37.959Z,101275.27
2017-06-25T06:59:05.183Z,101277.84
2017-06-25T07:01:31.444Z,101278.73
2017-06-25T07:03:57.692Z,101278.21
2017-06-25T07:06:24.443Z,101284.06
2017-06-25T07:08:50.686Z,101280.09
2017-06-25T07:11:16.956Z,101287.52
2017-06-25T07:13:43.383Z,101280.64
2017-06-25T07:17:35.856Z,101286.44
2017-06-25T07:20:02.163Z,101285.61
2017-06-25T07:22:29.074Z,101285.77
2017-06-25T07:24:55.662Z,101294.27
2017-06-25T07:27:22.103Z,101293.55
2017-06-25T07:29:48.367Z,101292.88
2017-06-25T07:32:14.612Z,101287.47
2017-06-25T07:34:47.712Z,101283.44
2017-06-25T07:37:13.980Z,101285.69
2017-06-25T07:39:40.259Z,101283.88
2017-06-25T07:42:07.325Z,101304.42
2017-06-25T07:44:33.618Z,101303.63
2017-06-25T07:46:59.867Z,101306.62
2017-06-25T07:49:26.123Z,101309.08
2017-06-25T07:51:52.382Z,101306.02
2017-06-25T07:54:18.652Z,101314.61
2017-06-25T07:56:45.579Z,101314.25
2017-06-25T07:59:11.860Z,101318.19
2017-06-25T08:01:38.380Z,101314.72
2017-06-25T08:04:05.333Z,101312.14
2017-06-25T08:06:31.603Z,101310.31
2017-06-25T08:08:57.879Z,101325.42
2017-06-25T08:11:24.170Z,101319.78
2017-06-25T08:13:50.427Z,101304.75
2017-06-25T08:17:35.510Z,101305.55
2017-06-25T08:20:01.781Z,101309.31
2017-06-25T08:22:28.072Z,101313.00
2017-06-25T08:24:54.399Z,101320.05
2017-06-25T08:27:20.684Z,101326.83
2017-06-25T08:29:46.991Z,101328.08
2017-06-25T08:32:13.278Z,101332.09
2017-06-25T08:34:39.543Z,101323.58
2017-06-25T08:37:05.957Z,101337.83
2017-06-25T08:39:32.245Z,101334.95
2017-06-25T08:41:58.504Z,101339.66
2017-06-25T08:44:24.772Z,101342.44
2017-06-25T08:46:51.331Z,101340.47
2017-06-25T08:49:18.871Z,101338.98
2017-06-25T08:51:45.235Z,101341.76
2017-06-25T08:54:11.478Z,101339.97
2017-06-25T08:56:37.793Z,101345.19
2017-06-25T08:59:04.032Z,101337.56
2017-06-25T09:01:31.339Z,101329.12
2017-06-25T09:03:57.628Z,101331.92
2017-06-25T09:06:23.883Z,101334.80
2017-06-25T09:08:50.138Z,101341.11
2017-06-25T09:11:16.454Z,101335.72
2017-06-25T09:13:42.707Z,101337.66
2017-06-25T09:17:35.152Z,101341.08
2017-06-25T09:20:01.439Z,101340.54
2017-06-25T09:22:27.687Z,101342.42
2017-06-25T09:24:53.960Z,101350.62
2017-06-25T09:27:20.302Z,101338.98
2017-06-25T09:29:46.759Z,101336.87
2017-06-25T09:32:19.515Z,101341.05
2017-06-25T09:34:45.791Z,101342.77
2017-06-25T09:37:13.073Z,101348.41
2017-06-25T09:39:39.469Z,101355.20
2017-06-25T09:42:05.785Z,101360.98
2017-06-25T09:44:32.124Z,101370.20
2017-06-25T09:46:58.411Z,101366.77
2017-06-25T09:49:24.718Z,101375.92
2017-06-25T09:51:51.021Z,101369.95
2017-06-25T09:54:17.343Z,101371.49
2017-06-25T09:56:43.644Z,101366.83
2017-06-25T09:59:09.927Z,101389.53
2017-06-25T10:01:36.167Z,101386.31
2017-06-25T10:04:02.463Z,101387.40
2017-06-25T10:06:28.795Z,101402.09
2017-06-25T10:08:55.056Z,101394.30
2017-06-25T10:11:21.362Z,101403.66
2017-06-25T10:13:47.873Z,101409.00
2017-06-25T10:17:36.853Z,101408.33
2017-06-25T10:20:03.143Z,101401.65
2017-06-25T10:22:30.180Z,101409.16
2017-06-25T10:24:56.492Z,101411.38
2017-06-25T10:27:22.791Z,101408.58
2017-06-25T10:29:49.071Z,101413.70
2017-06-25T10:32:15.390Z,101412.98
2017-06-25T10:34:41.675Z,101422.08
2017-06-25T10:37:07.922Z,101423.25
2017-06-25T10:39:34.214Z,101429.72
2017-06-25T10:42:01.259Z,101424.80
2017-06-25T10:44:28.293Z,101417.89
2017-06-25T10:46:54.563Z,101418.73
2017-06-25T10:49:20.838Z,101426.09
2017-06-25T10:51:47.111Z,101428.55
2017-06-25T10:54:13.375Z,101431.33
2017-06-25T10:56:39.697Z,101422.78
2017-06-25T10:59:06.010Z,101430.23
2017-06-25T11:01:32.274Z,101434.85
2017-06-25T11:03:58.573Z,101436.95
2017-06-25T11:06:26.165Z,101436.98
2017-06-25T11:08:52.444Z,101436.16
2017-06-25T11:11:18.739Z,101443.22
2017-06-25T11:13:45.007Z,101438.11
2017-06-25T11:17:36.555Z,101436.70
2017-06-25T11:20:02.816Z,101453.27
2017-06-25T11:22:29.084Z,101446.51
2017-06-25T11:24:55.403Z,101454.20
2017-06-25T11:27:21.829Z,101453.49
2017-06-25T11:29:48.850Z,101449.79
2017-06-25T11:32:15.288Z,101449.67
2017-06-25T11:34:41.565Z,101442.06
2017-06-25T11:37:07.854Z,101441.75
2017-06-25T11:39:34.147Z,101442.61
2017-06-25T11:42:00.387Z,101442.58
2017-06-25T11:44:26.680Z,101450.53
2017-06-25T11:46:52.972Z,101453.05
2017-06-25T11:49:19.241Z,101466.05
2017-06-25T11:51:45.573Z,101473.83
2017-06-25T11:54:12.159Z,101476.16
2017-06-25T11:56:38.430Z,101472.95
2017-06-25T11:59:04.715Z,101469.62
2017-06-25T12:01:31.009Z,101473.05
2017-06-25T12:03:57.304Z,101478.67
2017-06-25T12:06:23.605Z,101475.88
2017-06-25T12:08:49.899Z,101475.86
2017-06-25T12:11:16.214Z,101484.28
2017-06-25T12:13:42.477Z,101472.98
2017-06-25T12:17:35.904Z,101465.28
2017-06-25T12:20:02.176Z,101467.08
2017-06-25T12:22:28.459Z,101466.98
2017-06-25T12:24:54.739Z,101468.34
2017-06-25T12:27:21.148Z,101469.19
2017-06-25T12:29:47.479Z,101467.00
2017-06-25T12:32:13.739Z,101472.02
2017-06-25T12:34:40.060Z,101470.86
2017-06-25T12:37:06.348Z,101473.45
2017-06-25T12:39:32.728Z,101479.06
2017-06-25T12:41:59.080Z,101471.58
2017-06-25T12:44:25.352Z,101463.55
2017-06-25T12:46:51.695Z,101458.42
2017-06-25T12:49:17.983Z,101452.36
2017-06-25T12:51:44.257Z,101449.52
2017-06-25T12:54:10.608Z,101449.05
2017-06-25T12:56:36.904Z,101452.93
2017-06-25T12:59:03.166Z,101455.80
2017-06-25T13:01:29.476Z,101462.17
2017-06-25T13:03:55.755Z,101451.76
2017-06-25T13:06:22.085Z,101452.91
2017-06-25T13:08:48.403Z,101440.84
2017-06-25T13:11:14.721Z,101444.56
2017-06-25T13:14:12.311Z,101444.22
2017-06-25T13:17:47.399Z,101442.73
2017-06-25T13:20:13.728Z,101455.84
2017-06-25T13:22:40.008Z,101453.87
2017-06-25T13:25:06.422Z,101455.72
2017-06-25T13:27:32.760Z,101462.12
2017-06-25T13:29:59.040Z,101462.39
2017-06-25T13:32:25.725Z,101460.87
2017-06-25T13:34:52.230Z,101456.05
2017-06-25T13:37:18.536Z,101451.36
2017-06-25T13:39:45.188Z,101464.76
2017-06-25T13:42:11.465Z,101469.14
2017-06-25T13:44:37.711Z,101452.81
2017-06-25T13:47:11.116Z,101455.17
2017-06-25T13:49:37.378Z,101457.28
2017-06-25T13:52:03.626Z,101458.86
2017-06-25T13:54:29.977Z,101462.14
2017-06-25T13:56:56.227Z,101458.48
2017-06-25T13:59:22.624Z,101455.55
2017-06-25T14:01:48.918Z,101460.06
2017-06-25T14:04:15.224Z,101456.20
2017-06-25T14:06:42.151Z,101450.02
2017-06-25T14:09:08.398Z,101451.08
2017-06-25T14:11:34.711Z,101449.09
2017-06-25T14:14:01.096Z,101451.41
2017-06-25T14:17:38.180Z,101454.15
2017-06-25T14:20:06.151Z,101449.56
2017-06-25T14:22:33.980Z,101442.38
2017-06-25T14:25:01.813Z,101435.69
2017-06-25T14:27:29.733Z,101439.14
2017-06-25T14:29:57.610Z,101440.13
2017-06-25T14:32:25.531Z,101434.92
2017-06-25T14:34:53.440Z,101434.26
2017-06-25T14:37:21.660Z,101438.44
2017-06-25T14:39:49.583Z,101432.22
2017-06-25T14:42:17.528Z,101439.88
2017-06-25T14:44:45.382Z,101440.13
2017-06-25T14:47:13.321Z,101440.96
2017-06-25T14:49:41.181Z,101440.84
2017-06-25T14:52:09.288Z,101433.19
2017-06-25T14:54:37.674Z,101429.23
2017-06-25T14:57:05.588Z,101425.64
2017-06-25T14:59:33.450Z,101428.45
2017-06-25T15:02:01.657Z,101431.27
2017-06-25T15:04:29.507Z,101437.34
2017-06-25T15:06:57.444Z,101427.91
2017-06-25T15:12:20.661Z,101420.22
2017-06-25T15:14:46.943Z,101430.06
2017-06-25T15:17:15.228Z,101432.47
2017-06-25T15:19:43.160Z,101421.95
2017-06-25T15:22:11.211Z,101421.05
2017-06-25T15:24:39.050Z,101424.88
2017-06-25T15:27:06.985Z,101419.09
2017-06-25T15:29:34.868Z,101416.59
2017-06-25T15:32:02.828Z,101418.67
2017-06-25T15:34:30.792Z,101416.61
2017-06-25T15:36:58.719Z,101417.07
2017-06-25T15:39:26.678Z,101411.14
2017-06-25T15:41:54.566Z,101408.11
2017-06-25T15:44:22.922Z,101411.17
2017-06-25T15:46:50.875Z,101409.83
2017-06-25T15:49:19.009Z,101413.05
2017-06-25T15:51:46.844Z,101407.25
2017-06-25T15:54:14.981Z,101402.71
2017-06-25T15:56:43.110Z,101404.06
2017-06-25T15:59:11.157Z,101402.22
2017-06-25T16:01:38.963Z,101404.23
2017-06-25T16:04:06.900Z,101404.16
2017-06-25T16:06:34.724Z,101400.20
2017-06-25T16:09:02.847Z,101398.98
2017-06-25T16:11:30.804Z,101402.38
2017-06-25T16:13:59.554Z,101405.03
2017-06-25T16:17:37.813Z,101408.20
2017-06-25T16:20:05.774Z,101394.00
2017-06-25T16:22:33.845Z,101391.61
2017-06-25T16:25:02.582Z,101392.44
2017-06-25T16:27:30.465Z,101392.13
2017-06-25T16:29:58.334Z,101382.85
2017-06-25T16:32:26.382Z,101388.07
2017-06-25T16:34:54.258Z,101387.78
2017-06-25T16:37:22.080Z,101379.80
2017-06-25T16:39:49.998Z,101381.02
2017-06-25T16:42:17.828Z,101379.07
2017-06-25T16:44:45.665Z,101382.41
2017-06-25T16:47:13.888Z,101381.74
2017-06-25T16:49:42.173Z,101379.21
2017-06-25T16:52:09.983Z,101387.44
2017-06-25T16:54:38.186Z,101388.67
2017-06-25T16:57:06.001Z,101382.47
2017-06-25T16:59:41.155Z,101389.40
2017-06-25T17:02:09.219Z,101389.52
2017-06-25T17:04:37.038Z,101386.98
2017-06-25T17:07:05.010Z,101390.13
2017-06-25T17:09:32.848Z,101382.49
2017-06-25T17:12:00.690Z,101385.98
2017-06-25T17:14:28.654Z,101384.66
2017-06-25T17:17:38.221Z,101381.91
2017-06-25T17:20:06.228Z,101383.09
2017-06-25T17:22:34.116Z,101377.12
2017-06-25T17:25:01.956Z,101380.23
2017-06-25T17:27:29.920Z,101374.98
2017-06-25T17:29:58.075Z,101374.67
2017-06-25T17:32:26.229Z,101370.64
2017-06-25T17:34:54.082Z,101373.40
2017-06-25T17:37:22.961Z,101386.14
2017-06-25T17:39:51.145Z,101379.52
2017-06-25T17:42:19.757Z,101373.48
2017-06-25T17:44:48.543Z,101367.58
2017-06-25T17:47:16.525Z,101365.56
2017-06-25T17:49:45.340Z,101360.98
2017-06-25T17:52:13.476Z,101362.38
2017-06-25T17:54:41.429Z,101357.97
2017-06-25T17:57:09.441Z,101352.97
2017-06-25T17:59:38.041Z,101350.07
2017-06-25T18:02:06.056Z,101360.08
2017-06-25T18:04:34.010Z,101360.20
2017-06-25T18:07:02.079Z,101357.02
2017-06-25T18:09:30.313Z,101351.27
2017-06-25T18:11:58.197Z,101349.73
2017-06-25T18:14:26.294Z,101344.97
2017-06-25T18:17:37.860Z,101347.91
2017-06-25T18:20:06.964Z,101338.98
2017-06-25T18:22:34.832Z,101348.19
2017-06-25T18:25:02.697Z,101345.75
2017-06-25T18:27:32.694Z,101353.91
2017-06-25T18:30:00.929Z,101350.43
2017-06-25T18:32:30.108Z,101351.54
2017-06-25T18:34:58.129Z,101348.57
2017-06-25T18:37:26.002Z,101343.80
2017-06-25T18:39:53.850Z,101347.52
2017-06-25T18:42:21.814Z,101343.56
2017-06-25T18:44:51.476Z,101347.27
2017-06-25T18:47:19.316Z,101344.67
2017-06-25T18:49:47.243Z,101340.67
2017-06-25T18:52:15.105Z,101345.37
2017-06-25T18:54:42.954Z,101342.80
2017-06-25T18:57:10.901Z,101337.91
2017-06-25T18:59:39.070Z,101342.23
2017-06-25T19:02:07.045Z,101337.39
2017-06-25T19:04:35.264Z,101339.78
2017-06-25T19:07:03.156Z,101343.46
2017-06-25T19:09:31.571Z,101335.97
2017-06-25T19:11:59.481Z,101336.17
2017-06-25T19:14:28.352Z,101334.52
2017-06-25T19:17:38.380Z,101334.53
2017-06-25T19:20:07.341Z,101332.81
2017-06-25T19:22:35.341Z,101336.56
2017-06-25T19:25:03.425Z,101335.07
2017-06-25T19:27:32.581Z,101331.98
2017-06-25T19:30:00.973Z,101336.73
2017-06-25T19:32:32.679Z,101342.85
2017-06-25T19:35:01.636Z,101332.41
2017-06-25T19:37:29.521Z,101340.98
2017-06-25T19:39:57.563Z,101337.20
2017-06-25T19:42:25.622Z,101338.39
2017-06-25T19:44:53.546Z,101338.46
2017-06-25T19:47:21.427Z,101340.89
2017-06-25T19:49:49.397Z,101343.28
2017-06-25T19:52:17.227Z,101347.53
2017-06-25T19:54:45.457Z,101343.04
2017-06-25T19:57:13.365Z,101348.30
2017-06-25T19:59:41.526Z,101347.66
2017-06-25T20:02:09.529Z,101342.84
2017-06-25T20:04:37.362Z,101344.44
2017-06-25T20:07:05.532Z,101344.56
2017-06-25T20:09:33.727Z,101338.74
2017-06-25T20:12:03.085Z,101346.70
2017-06-25T20:14:31.051Z,101345.28
2017-06-25T20:17:38.395Z,101347.96
2017-06-25T20:20:06.347Z,101354.74
2017-06-25T20:22:34.319Z,101359.84
2017-06-25T20:25:02.183Z,101350.34
2017-06-25T20:27:30.185Z,101362.84
2017-06-25T20:29:58.592Z,101351.03
2017-06-25T20:32:26.512Z,101358.77
2017-06-25T20:34:54.506Z,101352.72
2017-06-25T20:37:22.500Z,101355.70
2017-06-25T20:39:50.971Z,101357.09
2017-06-25T20:42:18.792Z,101358.11
2017-06-25T20:44:46.942Z,101352.95
2017-06-25T20:47:14.770Z,101353.55
2017-06-25T20:49:42.851Z,101360.46
2017-06-25T20:52:10.899Z,101359.13
2017-06-25T20:54:38.939Z,101359.14
2017-06-25T20:57:06.963Z,101348.53
2017-06-25T20:59:34.820Z,101355.36
2017-06-25T21:02:02.933Z,101359.01
2017-06-25T21:04:31.162Z,101360.60
2017-06-25T21:07:00.278Z,101362.77
2017-06-25T21:09:28.702Z,101358.92
2017-06-25T21:11:57.173Z,101363.91
2017-06-25T21:14:25.016Z,101367.55
2017-06-25T21:17:40.315Z,101370.98
2017-06-25T21:20:08.628Z,101377.02
2017-06-25T21:22:36.481Z,101366.08
2017-06-25T21:25:04.406Z,101367.53
2017-06-25T21:27:32.220Z,101373.56
2017-06-25T21:30:00.429Z,101367.59
2017-06-25T21:32:28.321Z,101364.64
2017-06-25T21:34:56.477Z,101368.30
2017-06-25T21:37:24.534Z,101361.15
2017-06-25T21:39:52.381Z,101368.16
2017-06-25T21:42:20.220Z,101368.52
2017-06-25T21:44:48.223Z,101366.33
2017-06-25T21:47:16.202Z,101379.23
2017-06-25T21:49:44.030Z,101375.25
2017-06-25T21:52:12.045Z,101374.23
2017-06-25T21:54:40.719Z,101365.19
2017-06-25T21:57:08.636Z,101378.09
2017-06-25T21:59:36.445Z,101371.73
2017-06-25T22:02:04.407Z,101367.81
2017-06-25T22:04:32.379Z,101373.06
2017-06-25T22:07:00.460Z,101368.44
2017-06-25T22:09:28.752Z,101365.72
2017-06-25T22:11:56.578Z,101361.73
2017-06-25T22:14:24.406Z,101359.88
2017-06-25T22:17:37.186Z,101363.00
2017-06-25T22:20:05.001Z,101367.12
2017-06-25T22:22:32.825Z,101362.52
2017-06-25T22:25:00.738Z,101358.22
2017-06-25T22:27:28.539Z,101357.97
2017-06-25T22:29:56.456Z,101351.78
2017-06-25T22:32:24.291Z,101358.05
2017-06-25T22:34:52.460Z,101353.17
2017-06-25T22:37:20.301Z,101350.32
2017-06-25T22:39:48.135Z,101351.41
2017-06-25T22:42:16.085Z,101358.30
2017-06-25T22:44:44.121Z,101350.41
2017-06-25T22:47:11.955Z,101353.17
2017-06-25T22:49:39.857Z,101359.69
2017-06-25T22:52:07.671Z,101366.44
2017-06-25T22:54:35.468Z,101362.47
2017-06-25T22:57:03.370Z,101359.74
2017-06-25T22:59:31.264Z,101356.51
2017-06-25T23:01:59.228Z,101355.99
2017-06-25T23:04:27.034Z,101358.22
2017-06-25T23:06:54.951Z,101359.35
2017-06-25T23:09:22.875Z,101365.17
2017-06-25T23:11:50.780Z,101358.71
2017-06-25T23:14:18.628Z,101356.31
2017-06-25T23:17:40.669Z,101366.23
2017-06-25T23:20:08.493Z,101368.82
2017-06-25T23:22:36.318Z,101371.38
2017-06-25T23:25:04.245Z,101362.87
2017-06-25T23:27:32.071Z,101365.48
2017-06-25T23:29:59.916Z,101361.64
2017-06-25T23:32:27.827Z,101365.81
2017-06-25T23:34:55.655Z,101369.45
2017-06-25T23:37:23.571Z,101371.85
2017-06-25T23:39:51.400Z,101370.45
2017-06-25T23:42:19.346Z,101368.95
2017-06-25T23:44:47.602Z,101366.45
2017-06-25T23:47:15.753Z,101370.09
2017-06-25T23:49:43.580Z,101369.20
2017-06-25T23:52:11.515Z,101359.98
2017-06-25T23:54:41.084Z,101368.22
2017-06-25T23:57:08.908Z,101371.16
2017-06-25T23:59:37.160Z,101368.55
